sensor_id;sensor_type;location;lat;lon;timestamp;P1;durP1;ratioP1;P2;durP2;ratioP2
12760;SDS011;6444;49.742;6.114;2023-10-19T00:00:44;50.47;;;28.52;;
12760;SDS011;6444;49.742;6.114;2023-10-19T00:03:11;49.15;;;27.98;;
12760;SDS011;6444;49.742;6.114;2023-10-19T00:05:38;56.97;;;36.78;;
12760;SDS011;6444;49.742;6.114;2023-10-19T00:08:05;54.92;;;30.12;;
12760;SDS011;6444;49.742;6.114;2023-10-19T00:10:50;48.58;;;28.55;;
12760;SDS011;6444;49.742;6.114;2023-10-19T00:13:16;49.97;;;28.77;;
12760;SDS011;6444;49.742;6.114;2023-10-19T00:15:42;55.88;;;29.95;;
12760;SDS011;6444;49.742;6.114;2023-10-19T00:18:10;53.10;;;27.95;;
12760;SDS011;6444;49.742;6.114;2023-10-19T00:20:36;52.65;;;29.70;;
12760;SDS011;6444;49.742;6.114;2023-10-19T00:23:12;58.90;;;30.52;;
12760;SDS011;6444;49.742;6.114;2023-10-19T00:25:42;56.85;;;31.33;;
12760;SDS011;6444;49.742;6.114;2023-10-19T00:28:08;56.88;;;30.88;;
12760;SDS011;6444;49.742;6.114;2023-10-19T00:30:35;53.72;;;29.87;;
12760;SDS011;6444;49.742;6.114;2023-10-19T00:33:02;57.85;;;31.02;;
12760;SDS011;6444;49.742;6.114;2023-10-19T00:35:28;58.63;;;30.88;;
12760;SDS011;6444;49.742;6.114;2023-10-19T00:37:55;58.60;;;30.45;;
12760;SDS011;6444;49.742;6.114;2023-10-19T00:40:21;56.08;;;29.63;;
12760;SDS011;6444;49.742;6.114;2023-10-19T00:42:48;59.22;;;31.27;;
12760;SDS011;6444;49.742;6.114;2023-10-19T00:45:15;58.17;;;30.70;;
12760;SDS011;6444;49.742;6.114;2023-10-19T00:47:41;56.00;;;29.77;;
12760;SDS011;6444;49.742;6.114;2023-10-19T00:50:08;56.65;;;29.75;;
12760;SDS011;6444;49.742;6.114;2023-10-19T00:52:35;59.55;;;31.05;;
12760;SDS011;6444;49.742;6.114;2023-10-19T00:55:01;58.60;;;30.73;;
12760;SDS011;6444;49.742;6.114;2023-10-19T00:57:28;56.45;;;30.40;;
12760;SDS011;6444;49.742;6.114;2023-10-19T01:00:01;60.90;;;30.65;;
12760;SDS011;6444;49.742;6.114;2023-10-19T01:02:40;64.05;;;38.83;;
12760;SDS011;6444;49.742;6.114;2023-10-19T01:05:09;51.73;;;32.33;;
12760;SDS011;6444;49.742;6.114;2023-10-19T01:07:37;55.65;;;29.27;;
12760;SDS011;6444;49.742;6.114;2023-10-19T01:10:04;55.83;;;29.58;;
12760;SDS011;6444;49.742;6.114;2023-10-19T01:12:48;53.42;;;27.33;;
12760;SDS011;6444;49.742;6.114;2023-10-19T01:15:18;41.37;;;22.10;;
12760;SDS011;6444;49.742;6.114;2023-10-19T01:17:50;40.28;;;21.55;;
12760;SDS011;6444;49.742;6.114;2023-10-19T01:20:20;44.78;;;25.90;;
12760;SDS011;6444;49.742;6.114;2023-10-19T01:22:55;55.03;;;27.27;;
12760;SDS011;6444;49.742;6.114;2023-10-19T01:25:47;54.30;;;33.57;;
12760;SDS011;6444;49.742;6.114;2023-10-19T01:28:16;51.25;;;27.13;;
12760;SDS011;6444;49.742;6.114;2023-10-19T01:30:45;58.08;;;33.63;;
12760;SDS011;6444;49.742;6.114;2023-10-19T01:33:12;49.53;;;25.62;;
12760;SDS011;6444;49.742;6.114;2023-10-19T01:35:39;44.90;;;23.23;;
12760;SDS011;6444;49.742;6.114;2023-10-19T01:38:24;43.20;;;21.52;;
12760;SDS011;6444;49.742;6.114;2023-10-19T01:40:51;44.00;;;21.27;;
12760;SDS011;6444;49.742;6.114;2023-10-19T01:43:17;37.63;;;18.02;;
12760;SDS011;6444;49.742;6.114;2023-10-19T01:45:47;29.63;;;16.45;;
12760;SDS011;6444;49.742;6.114;2023-10-19T01:48:14;27.62;;;15.25;;
12760;SDS011;6444;49.742;6.114;2023-10-19T01:50:41;24.83;;;13.80;;
12760;SDS011;6444;49.742;6.114;2023-10-19T01:53:07;25.62;;;16.15;;
12760;SDS011;6444;49.742;6.114;2023-10-19T01:55:36;20.12;;;12.43;;
12760;SDS011;6444;49.742;6.114;2023-10-19T01:58:01;15.93;;;8.52;;
12760;SDS011;6444;49.742;6.114;2023-10-19T02:00:27;21.23;;;11.60;;
12760;SDS011;6444;49.742;6.114;2023-10-19T02:02:54;15.23;;;7.85;;
12760;SDS011;6444;49.742;6.114;2023-10-19T02:05:21;9.10;;;6.55;;
12760;SDS011;6444;49.742;6.114;2023-10-19T02:07:48;12.80;;;6.28;;
12760;SDS011;6444;49.742;6.114;2023-10-19T02:10:15;12.80;;;4.68;;
12760;SDS011;6444;49.742;6.114;2023-10-19T02:12:41;10.20;;;5.20;;
12760;SDS011;6444;49.742;6.114;2023-10-19T02:15:08;8.73;;;5.10;;
12760;SDS011;6444;49.742;6.114;2023-10-19T02:17:35;11.18;;;4.47;;
12760;SDS011;6444;49.742;6.114;2023-10-19T02:20:02;12.70;;;5.35;;
12760;SDS011;6444;49.742;6.114;2023-10-19T02:22:28;10.82;;;4.47;;
12760;SDS011;6444;49.742;6.114;2023-10-19T02:24:55;11.10;;;4.57;;
12760;SDS011;6444;49.742;6.114;2023-10-19T02:27:22;8.52;;;3.67;;
12760;SDS011;6444;49.742;6.114;2023-10-19T02:29:48;11.88;;;4.00;;
12760;SDS011;6444;49.742;6.114;2023-10-19T02:32:16;7.93;;;3.35;;
12760;SDS011;6444;49.742;6.114;2023-10-19T02:34:42;9.48;;;4.07;;
12760;SDS011;6444;49.742;6.114;2023-10-19T02:37:09;8.80;;;4.00;;
12760;SDS011;6444;49.742;6.114;2023-10-19T02:39:36;7.37;;;3.65;;
12760;SDS011;6444;49.742;6.114;2023-10-19T02:42:02;9.90;;;3.28;;
12760;SDS011;6444;49.742;6.114;2023-10-19T02:44:30;10.40;;;4.00;;
12760;SDS011;6444;49.742;6.114;2023-10-19T02:46:56;12.75;;;4.32;;
12760;SDS011;6444;49.742;6.114;2023-10-19T02:49:27;8.23;;;3.90;;
12760;SDS011;6444;49.742;6.114;2023-10-19T02:51:52;8.95;;;5.22;;
12760;SDS011;6444;49.742;6.114;2023-10-19T02:54:22;13.35;;;4.70;;
12760;SDS011;6444;49.742;6.114;2023-10-19T02:56:49;7.62;;;3.67;;
12760;SDS011;6444;49.742;6.114;2023-10-19T02:59:16;9.30;;;3.75;;
12760;SDS011;6444;49.742;6.114;2023-10-19T03:01:42;9.10;;;3.97;;
12760;SDS011;6444;49.742;6.114;2023-10-19T03:04:08;9.98;;;4.20;;
12760;SDS011;6444;49.742;6.114;2023-10-19T03:06:35;11.15;;;4.93;;
12760;SDS011;6444;49.742;6.114;2023-10-19T03:09:05;11.70;;;4.90;;
12760;SDS011;6444;49.742;6.114;2023-10-19T03:11:31;11.35;;;3.80;;
12760;SDS011;6444;49.742;6.114;2023-10-19T03:13:58;13.38;;;3.72;;
12760;SDS011;6444;49.742;6.114;2023-10-19T03:16:25;13.20;;;4.20;;
12760;SDS011;6444;49.742;6.114;2023-10-19T03:18:51;14.60;;;4.40;;
12760;SDS011;6444;49.742;6.114;2023-10-19T03:21:18;17.33;;;5.25;;
12760;SDS011;6444;49.742;6.114;2023-10-19T03:23:44;11.07;;;5.03;;
12760;SDS011;6444;49.742;6.114;2023-10-19T03:26:11;14.87;;;4.37;;
12760;SDS011;6444;49.742;6.114;2023-10-19T03:28:43;14.38;;;4.32;;
12760;SDS011;6444;49.742;6.114;2023-10-19T03:31:10;13.30;;;5.28;;
12760;SDS011;6444;49.742;6.114;2023-10-19T03:33:36;12.75;;;5.57;;
12760;SDS011;6444;49.742;6.114;2023-10-19T03:36:03;13.43;;;4.75;;
12760;SDS011;6444;49.742;6.114;2023-10-19T03:38:30;12.82;;;4.35;;
12760;SDS011;6444;49.742;6.114;2023-10-19T03:40:56;13.13;;;5.72;;
12760;SDS011;6444;49.742;6.114;2023-10-19T03:43:23;14.90;;;4.57;;
12760;SDS011;6444;49.742;6.114;2023-10-19T03:45:50;10.52;;;3.90;;
12760;SDS011;6444;49.742;6.114;2023-10-19T03:48:17;14.20;;;4.47;;
12760;SDS011;6444;49.742;6.114;2023-10-19T03:50:44;12.40;;;3.90;;
12760;SDS011;6444;49.742;6.114;2023-10-19T03:53:10;11.05;;;4.60;;
12760;SDS011;6444;49.742;6.114;2023-10-19T03:55:37;11.23;;;4.20;;
12760;SDS011;6444;49.742;6.114;2023-10-19T03:58:04;12.82;;;4.40;;
12760;SDS011;6444;49.742;6.114;2023-10-19T04:00:30;13.30;;;3.78;;
12760;SDS011;6444;49.742;6.114;2023-10-19T04:02:57;14.48;;;4.10;;
12760;SDS011;6444;49.742;6.114;2023-10-19T04:05:24;9.38;;;3.80;;
12760;SDS011;6444;49.742;6.114;2023-10-19T04:07:50;17.27;;;5.90;;
12760;SDS011;6444;49.742;6.114;2023-10-19T04:10:17;14.43;;;4.47;;
12760;SDS011;6444;49.742;6.114;2023-10-19T04:12:56;14.90;;;4.40;;
12760;SDS011;6444;49.742;6.114;2023-10-19T04:15:22;16.90;;;4.53;;
12760;SDS011;6444;49.742;6.114;2023-10-19T04:17:49;9.52;;;4.00;;
12760;SDS011;6444;49.742;6.114;2023-10-19T04:20:16;15.10;;;4.43;;
12760;SDS011;6444;49.742;6.114;2023-10-19T04:22:45;16.60;;;4.97;;
12760;SDS011;6444;49.742;6.114;2023-10-19T04:25:15;14.18;;;7.37;;
12760;SDS011;6444;49.742;6.114;2023-10-19T04:27:42;15.98;;;5.25;;
12760;SDS011;6444;49.742;6.114;2023-10-19T04:30:11;16.90;;;4.50;;
12760;SDS011;6444;49.742;6.114;2023-10-19T04:32:52;12.80;;;4.25;;
12760;SDS011;6444;49.742;6.114;2023-10-19T04:35:19;9.40;;;3.47;;
12760;SDS011;6444;49.742;6.114;2023-10-19T04:37:52;12.02;;;3.67;;
12760;SDS011;6444;49.742;6.114;2023-10-19T04:40:15;13.30;;;3.65;;
12760;SDS011;6444;49.742;6.114;2023-10-19T04:42:41;14.95;;;4.25;;
12760;SDS011;6444;49.742;6.114;2023-10-19T04:45:08;16.83;;;4.70;;
12760;SDS011;6444;49.742;6.114;2023-10-19T04:47:35;10.52;;;3.75;;
12760;SDS011;6444;49.742;6.114;2023-10-19T04:50:02;12.45;;;3.92;;
12760;SDS011;6444;49.742;6.114;2023-10-19T04:52:28;11.40;;;3.72;;
12760;SDS011;6444;49.742;6.114;2023-10-19T04:54:55;11.88;;;3.40;;
12760;SDS011;6444;49.742;6.114;2023-10-19T04:57:21;15.55;;;5.57;;
12760;SDS011;6444;49.742;6.114;2023-10-19T04:59:48;13.25;;;4.57;;
12760;SDS011;6444;49.742;6.114;2023-10-19T05:02:14;14.02;;;4.07;;
12760;SDS011;6444;49.742;6.114;2023-10-19T05:04:42;11.10;;;3.55;;
12760;SDS011;6444;49.742;6.114;2023-10-19T05:07:08;21.73;;;6.93;;
12760;SDS011;6444;49.742;6.114;2023-10-19T05:09:34;14.87;;;6.25;;
12760;SDS011;6444;49.742;6.114;2023-10-19T05:12:02;14.20;;;6.18;;
12760;SDS011;6444;49.742;6.114;2023-10-19T05:14:28;20.08;;;8.88;;
12760;SDS011;6444;49.742;6.114;2023-10-19T05:16:55;12.13;;;4.68;;
12760;SDS011;6444;49.742;6.114;2023-10-19T05:19:22;13.05;;;4.15;;
12760;SDS011;6444;49.742;6.114;2023-10-19T05:21:48;13.65;;;4.28;;
12760;SDS011;6444;49.742;6.114;2023-10-19T05:24:15;10.95;;;4.10;;
12760;SDS011;6444;49.742;6.114;2023-10-19T05:26:42;15.07;;;4.65;;
12760;SDS011;6444;49.742;6.114;2023-10-19T05:29:09;13.98;;;4.82;;
12760;SDS011;6444;49.742;6.114;2023-10-19T05:31:36;15.38;;;4.65;;
12760;SDS011;6444;49.742;6.114;2023-10-19T05:34:02;10.88;;;3.87;;
12760;SDS011;6444;49.742;6.114;2023-10-19T05:36:29;17.23;;;4.20;;
12760;SDS011;6444;49.742;6.114;2023-10-19T05:38:56;16.73;;;4.25;;
12760;SDS011;6444;49.742;6.114;2023-10-19T05:41:22;12.52;;;4.10;;
12760;SDS011;6444;49.742;6.114;2023-10-19T05:43:50;11.98;;;4.35;;
12760;SDS011;6444;49.742;6.114;2023-10-19T05:46:16;12.25;;;4.00;;
12760;SDS011;6444;49.742;6.114;2023-10-19T05:48:43;10.90;;;4.03;;
12760;SDS011;6444;49.742;6.114;2023-10-19T05:51:09;15.98;;;5.65;;
12760;SDS011;6444;49.742;6.114;2023-10-19T05:53:36;16.10;;;5.32;;
12760;SDS011;6444;49.742;6.114;2023-10-19T05:56:03;13.45;;;4.93;;
12760;SDS011;6444;49.742;6.114;2023-10-19T05:58:29;15.20;;;4.87;;
12760;SDS011;6444;49.742;6.114;2023-10-19T06:00:58;13.98;;;5.10;;
12760;SDS011;6444;49.742;6.114;2023-10-19T06:03:23;13.52;;;5.03;;
12760;SDS011;6444;49.742;6.114;2023-10-19T06:05:49;13.02;;;4.30;;
12760;SDS011;6444;49.742;6.114;2023-10-19T06:08:16;11.95;;;3.97;;
12760;SDS011;6444;49.742;6.114;2023-10-19T06:10:43;9.45;;;3.95;;
12760;SDS011;6444;49.742;6.114;2023-10-19T06:13:09;12.43;;;4.12;;
12760;SDS011;6444;49.742;6.114;2023-10-19T06:15:36;11.65;;;4.30;;
12760;SDS011;6444;49.742;6.114;2023-10-19T06:18:03;13.38;;;4.72;;
12760;SDS011;6444;49.742;6.114;2023-10-19T06:20:29;12.30;;;5.60;;
12760;SDS011;6444;49.742;6.114;2023-10-19T06:22:56;12.13;;;4.72;;
12760;SDS011;6444;49.742;6.114;2023-10-19T06:25:23;12.25;;;4.72;;
12760;SDS011;6444;49.742;6.114;2023-10-19T06:27:50;15.90;;;5.90;;
12760;SDS011;6444;49.742;6.114;2023-10-19T06:30:16;12.02;;;5.30;;
12760;SDS011;6444;49.742;6.114;2023-10-19T06:32:47;16.33;;;4.70;;
12760;SDS011;6444;49.742;6.114;2023-10-19T06:35:15;15.68;;;4.75;;
12760;SDS011;6444;49.742;6.114;2023-10-19T06:37:42;17.37;;;6.57;;
12760;SDS011;6444;49.742;6.114;2023-10-19T06:40:09;12.13;;;5.22;;
12760;SDS011;6444;49.742;6.114;2023-10-19T06:42:36;17.23;;;6.05;;
12760;SDS011;6444;49.742;6.114;2023-10-19T06:45:03;15.68;;;5.20;;
12760;SDS011;6444;49.742;6.114;2023-10-19T06:47:29;11.38;;;4.53;;
12760;SDS011;6444;49.742;6.114;2023-10-19T06:49:56;14.30;;;4.62;;
12760;SDS011;6444;49.742;6.114;2023-10-19T06:52:22;11.05;;;4.20;;
12760;SDS011;6444;49.742;6.114;2023-10-19T06:54:49;13.07;;;5.47;;
12760;SDS011;6444;49.742;6.114;2023-10-19T06:57:16;17.60;;;5.15;;
12760;SDS011;6444;49.742;6.114;2023-10-19T06:59:42;14.93;;;3.80;;
12760;SDS011;6444;49.742;6.114;2023-10-19T07:02:09;11.48;;;3.97;;
12760;SDS011;6444;49.742;6.114;2023-10-19T07:04:36;13.27;;;4.05;;
12760;SDS011;6444;49.742;6.114;2023-10-19T07:07:02;8.70;;;3.72;;
12760;SDS011;6444;49.742;6.114;2023-10-19T07:09:29;9.00;;;3.55;;
12760;SDS011;6444;49.742;6.114;2023-10-19T07:11:56;12.25;;;3.65;;
12760;SDS011;6444;49.742;6.114;2023-10-19T07:14:23;8.35;;;3.42;;
12760;SDS011;6444;49.742;6.114;2023-10-19T07:16:50;14.75;;;3.70;;
12760;SDS011;6444;49.742;6.114;2023-10-19T07:19:16;9.75;;;4.18;;
12760;SDS011;6444;49.742;6.114;2023-10-19T07:21:43;10.68;;;3.37;;
12760;SDS011;6444;49.742;6.114;2023-10-19T07:24:10;10.43;;;3.30;;
12760;SDS011;6444;49.742;6.114;2023-10-19T07:26:37;8.18;;;2.85;;
12760;SDS011;6444;49.742;6.114;2023-10-19T07:29:03;8.18;;;3.17;;
12760;SDS011;6444;49.742;6.114;2023-10-19T07:31:30;8.85;;;2.75;;
12760;SDS011;6444;49.742;6.114;2023-10-19T07:33:57;8.65;;;3.08;;
12760;SDS011;6444;49.742;6.114;2023-10-19T07:36:24;9.82;;;3.20;;
12760;SDS011;6444;49.742;6.114;2023-10-19T07:38:51;7.53;;;2.55;;
12760;SDS011;6444;49.742;6.114;2023-10-19T07:41:17;9.45;;;2.90;;
12760;SDS011;6444;49.742;6.114;2023-10-19T07:43:44;6.12;;;2.55;;
12760;SDS011;6444;49.742;6.114;2023-10-19T07:46:11;10.02;;;2.70;;
12760;SDS011;6444;49.742;6.114;2023-10-19T07:48:38;7.40;;;2.72;;
12760;SDS011;6444;49.742;6.114;2023-10-19T07:51:05;8.43;;;2.53;;
12760;SDS011;6444;49.742;6.114;2023-10-19T07:53:31;4.95;;;1.92;;
12760;SDS011;6444;49.742;6.114;2023-10-19T07:56:01;6.62;;;2.30;;
12760;SDS011;6444;49.742;6.114;2023-10-19T07:58:27;6.28;;;2.30;;
12760;SDS011;6444;49.742;6.114;2023-10-19T08:00:54;5.47;;;2.22;;
12760;SDS011;6444;49.742;6.114;2023-10-19T08:03:21;7.63;;;2.40;;
12760;SDS011;6444;49.742;6.114;2023-10-19T08:05:47;8.40;;;2.65;;
12760;SDS011;6444;49.742;6.114;2023-10-19T08:08:15;8.57;;;2.50;;
12760;SDS011;6444;49.742;6.114;2023-10-19T08:10:41;6.82;;;2.95;;
12760;SDS011;6444;49.742;6.114;2023-10-19T08:13:08;10.45;;;2.50;;
12760;SDS011;6444;49.742;6.114;2023-10-19T08:15:35;5.80;;;2.10;;
12760;SDS011;6444;49.742;6.114;2023-10-19T08:18:02;6.82;;;2.35;;
12760;SDS011;6444;49.742;6.114;2023-10-19T08:20:29;8.88;;;2.50;;
12760;SDS011;6444;49.742;6.114;2023-10-19T08:22:59;8.68;;;2.35;;
12760;SDS011;6444;49.742;6.114;2023-10-19T08:25:25;5.50;;;2.00;;
12760;SDS011;6444;49.742;6.114;2023-10-19T08:27:55;6.87;;;2.15;;
12760;SDS011;6444;49.742;6.114;2023-10-19T08:30:24;12.45;;;2.47;;
12760;SDS011;6444;49.742;6.114;2023-10-19T08:32:50;8.10;;;2.80;;
12760;SDS011;6444;49.742;6.114;2023-10-19T08:35:18;6.00;;;2.80;;
12760;SDS011;6444;49.742;6.114;2023-10-19T08:37:44;6.72;;;2.30;;
12760;SDS011;6444;49.742;6.114;2023-10-19T08:40:10;5.87;;;2.45;;
12760;SDS011;6444;49.742;6.114;2023-10-19T08:42:43;6.57;;;2.70;;
12760;SDS011;6444;49.742;6.114;2023-10-19T08:45:12;8.63;;;2.30;;
12760;SDS011;6444;49.742;6.114;2023-10-19T08:47:52;6.75;;;2.65;;
12760;SDS011;6444;49.742;6.114;2023-10-19T08:50:15;9.88;;;2.62;;
12760;SDS011;6444;49.742;6.114;2023-10-19T08:52:41;6.40;;;2.70;;
12760;SDS011;6444;49.742;6.114;2023-10-19T08:55:08;7.20;;;3.17;;
12760;SDS011;6444;49.742;6.114;2023-10-19T08:57:36;5.55;;;2.83;;
12760;SDS011;6444;49.742;6.114;2023-10-19T09:00:02;8.93;;;3.65;;
12760;SDS011;6444;49.742;6.114;2023-10-19T09:02:30;9.50;;;4.03;;
12760;SDS011;6444;49.742;6.114;2023-10-19T09:04:56;8.40;;;3.75;;
12760;SDS011;6444;49.742;6.114;2023-10-19T09:07:23;10.05;;;4.20;;
12760;SDS011;6444;49.742;6.114;2023-10-19T09:09:49;7.50;;;3.83;;
12760;SDS011;6444;49.742;6.114;2023-10-19T09:12:16;12.07;;;4.18;;
12760;SDS011;6444;49.742;6.114;2023-10-19T09:14:43;11.07;;;5.20;;
12760;SDS011;6444;49.742;6.114;2023-10-19T09:17:09;7.75;;;4.60;;
12760;SDS011;6444;49.742;6.114;2023-10-19T09:19:39;6.87;;;4.12;;
12760;SDS011;6444;49.742;6.114;2023-10-19T09:22:05;7.57;;;3.65;;
12760;SDS011;6444;49.742;6.114;2023-10-19T09:24:44;9.32;;;3.60;;
12760;SDS011;6444;49.742;6.114;2023-10-19T09:27:11;7.62;;;3.15;;
12760;SDS011;6444;49.742;6.114;2023-10-19T09:29:38;7.57;;;2.60;;
12760;SDS011;6444;49.742;6.114;2023-10-19T09:32:05;9.63;;;2.58;;
12760;SDS011;6444;49.742;6.114;2023-10-19T09:34:31;7.93;;;4.37;;
12760;SDS011;6444;49.742;6.114;2023-10-19T09:36:59;8.18;;;4.00;;
12760;SDS011;6444;49.742;6.114;2023-10-19T09:39:25;9.00;;;4.07;;
12760;SDS011;6444;49.742;6.114;2023-10-19T09:41:52;6.60;;;3.72;;
12760;SDS011;6444;49.742;6.114;2023-10-19T09:44:19;9.98;;;5.60;;
12760;SDS011;6444;49.742;6.114;2023-10-19T09:46:45;8.65;;;4.00;;
12760;SDS011;6444;49.742;6.114;2023-10-19T09:49:12;6.82;;;3.92;;
12760;SDS011;6444;49.742;6.114;2023-10-19T09:51:41;8.27;;;3.85;;
12760;SDS011;6444;49.742;6.114;2023-10-19T09:56:46;5.35;;;3.20;;
12760;SDS011;6444;49.742;6.114;2023-10-19T09:59:22;12.27;;;3.40;;
12760;SDS011;6444;49.742;6.114;2023-10-19T10:02:10;6.35;;;3.40;;
12760;SDS011;6444;49.742;6.114;2023-10-19T10:04:39;10.32;;;3.97;;
12760;SDS011;6444;49.742;6.114;2023-10-19T10:07:06;8.38;;;4.35;;
12760;SDS011;6444;49.742;6.114;2023-10-19T10:09:36;9.27;;;4.80;;
12760;SDS011;6444;49.742;6.114;2023-10-19T10:14:54;5.28;;;3.62;;
12760;SDS011;6444;49.742;6.114;2023-10-19T10:17:21;5.60;;;4.00;;
12760;SDS011;6444;49.742;6.114;2023-10-19T10:19:49;9.02;;;3.80;;
12760;SDS011;6444;49.742;6.114;2023-10-19T10:22:15;7.97;;;4.00;;
12760;SDS011;6444;49.742;6.114;2023-10-19T10:24:42;8.88;;;3.75;;
12760;SDS011;6444;49.742;6.114;2023-10-19T10:27:08;10.05;;;4.03;;
12760;SDS011;6444;49.742;6.114;2023-10-19T10:29:36;5.20;;;3.50;;
12760;SDS011;6444;49.742;6.114;2023-10-19T10:32:02;5.00;;;3.10;;
12760;SDS011;6444;49.742;6.114;2023-10-19T10:37:09;3.95;;;3.08;;
12760;SDS011;6444;49.742;6.114;2023-10-19T10:39:35;10.10;;;3.62;;
12760;SDS011;6444;49.742;6.114;2023-10-19T10:42:04;7.22;;;3.85;;
12760;SDS011;6444;49.742;6.114;2023-10-19T10:44:43;7.82;;;3.65;;
12760;SDS011;6444;49.742;6.114;2023-10-19T10:47:19;6.40;;;4.07;;
12760;SDS011;6444;49.742;6.114;2023-10-19T10:49:52;5.68;;;3.72;;
12760;SDS011;6444;49.742;6.114;2023-10-19T10:52:34;13.18;;;10.82;;
12760;SDS011;6444;49.742;6.114;2023-10-19T10:55:07;7.43;;;5.05;;
12760;SDS011;6444;49.742;6.114;2023-10-19T10:57:42;19.17;;;17.27;;
12760;SDS011;6444;49.742;6.114;2023-10-19T11:00:09;11.63;;;7.07;;
12760;SDS011;6444;49.742;6.114;2023-10-19T11:02:37;6.37;;;4.72;;
12760;SDS011;6444;49.742;6.114;2023-10-19T11:05:04;10.88;;;5.20;;
12760;SDS011;6444;49.742;6.114;2023-10-19T11:07:31;6.75;;;5.07;;
12760;SDS011;6444;49.742;6.114;2023-10-19T11:09:57;7.82;;;5.53;;
12760;SDS011;6444;49.742;6.114;2023-10-19T11:12:24;7.43;;;5.70;;
12760;SDS011;6444;49.742;6.114;2023-10-19T11:14:52;10.23;;;6.57;;
12760;SDS011;6444;49.742;6.114;2023-10-19T11:17:18;15.85;;;9.38;;
12760;SDS011;6444;49.742;6.114;2023-10-19T11:19:44;11.93;;;8.48;;
12760;SDS011;6444;49.742;6.114;2023-10-19T11:22:11;14.15;;;9.60;;
12760;SDS011;6444;49.742;6.114;2023-10-19T11:24:38;11.70;;;9.05;;
12760;SDS011;6444;49.742;6.114;2023-10-19T11:27:04;12.55;;;9.35;;
12760;SDS011;6444;49.742;6.114;2023-10-19T11:29:31;11.77;;;9.05;;
12760;SDS011;6444;49.742;6.114;2023-10-19T11:31:58;17.60;;;11.35;;
12760;SDS011;6444;49.742;6.114;2023-10-19T11:34:24;15.70;;;12.15;;
12760;SDS011;6444;49.742;6.114;2023-10-19T11:36:55;17.62;;;15.02;;
12760;SDS011;6444;49.742;6.114;2023-10-19T11:39:23;14.20;;;11.82;;
12760;SDS011;6444;49.742;6.114;2023-10-19T11:41:51;15.18;;;12.02;;
12760;SDS011;6444;49.742;6.114;2023-10-19T11:44:17;15.10;;;11.48;;
12760;SDS011;6444;49.742;6.114;2023-10-19T11:46:44;11.52;;;10.35;;
12760;SDS011;6444;49.742;6.114;2023-10-19T11:49:11;9.32;;;8.13;;
12760;SDS011;6444;49.742;6.114;2023-10-19T11:51:37;8.02;;;6.80;;
12760;SDS011;6444;49.742;6.114;2023-10-19T11:54:04;8.25;;;6.10;;
12760;SDS011;6444;49.742;6.114;2023-10-19T11:56:31;8.48;;;6.43;;
12760;SDS011;6444;49.742;6.114;2023-10-19T11:58:58;8.95;;;6.32;;
12760;SDS011;6444;49.742;6.114;2023-10-19T12:01:24;7.90;;;6.62;;
12760;SDS011;6444;49.742;6.114;2023-10-19T12:03:51;7.12;;;6.43;;
12760;SDS011;6444;49.742;6.114;2023-10-19T12:06:18;9.23;;;7.95;;
12760;SDS011;6444;49.742;6.114;2023-10-19T12:08:44;6.18;;;5.00;;
12760;SDS011;6444;49.742;6.114;2023-10-19T12:11:11;8.43;;;5.68;;
12760;SDS011;6444;49.742;6.114;2023-10-19T12:13:47;7.57;;;6.50;;
12760;SDS011;6444;49.742;6.114;2023-10-19T12:16:13;9.13;;;7.10;;
12760;SDS011;6444;49.742;6.114;2023-10-19T12:18:40;12.27;;;9.93;;
12760;SDS011;6444;49.742;6.114;2023-10-19T12:21:07;22.40;;;20.02;;
12760;SDS011;6444;49.742;6.114;2023-10-19T12:23:33;10.65;;;9.55;;
12760;SDS011;6444;49.742;6.114;2023-10-19T12:26:00;8.50;;;7.40;;
12760;SDS011;6444;49.742;6.114;2023-10-19T12:28:27;7.30;;;6.20;;
12760;SDS011;6444;49.742;6.114;2023-10-19T12:30:54;7.53;;;6.03;;
12760;SDS011;6444;49.742;6.114;2023-10-19T12:33:20;7.10;;;6.30;;
12760;SDS011;6444;49.742;6.114;2023-10-19T12:35:47;8.68;;;6.90;;
12760;SDS011;6444;49.742;6.114;2023-10-19T12:38:20;7.05;;;6.35;;
12760;SDS011;6444;49.742;6.114;2023-10-19T12:40:47;9.10;;;6.60;;
12760;SDS011;6444;49.742;6.114;2023-10-19T12:43:14;9.43;;;7.12;;
12760;SDS011;6444;49.742;6.114;2023-10-19T12:45:40;7.37;;;6.68;;
12760;SDS011;6444;49.742;6.114;2023-10-19T12:48:07;6.95;;;6.25;;
12760;SDS011;6444;49.742;6.114;2023-10-19T12:50:34;10.57;;;6.90;;
12760;SDS011;6444;49.742;6.114;2023-10-19T12:53:00;8.38;;;7.43;;
12760;SDS011;6444;49.742;6.114;2023-10-19T12:55:26;8.93;;;8.03;;
12760;SDS011;6444;49.742;6.114;2023-10-19T12:57:53;8.40;;;7.15;;
12760;SDS011;6444;49.742;6.114;2023-10-19T13:00:20;7.53;;;6.82;;
12760;SDS011;6444;49.742;6.114;2023-10-19T13:02:52;7.55;;;6.85;;
12760;SDS011;6444;49.742;6.114;2023-10-19T13:05:19;8.93;;;7.78;;
12760;SDS011;6444;49.742;6.114;2023-10-19T13:07:45;8.43;;;7.53;;
12760;SDS011;6444;49.742;6.114;2023-10-19T13:10:13;8.20;;;6.70;;
12760;SDS011;6444;49.742;6.114;2023-10-19T13:12:39;8.70;;;7.80;;
12760;SDS011;6444;49.742;6.114;2023-10-19T13:15:06;9.20;;;7.40;;
12760;SDS011;6444;49.742;6.114;2023-10-19T13:17:39;8.35;;;7.55;;
12760;SDS011;6444;49.742;6.114;2023-10-19T13:20:06;8.32;;;7.47;;
12760;SDS011;6444;49.742;6.114;2023-10-19T13:22:33;10.38;;;7.20;;
12760;SDS011;6444;49.742;6.114;2023-10-19T13:24:59;7.60;;;6.85;;
12760;SDS011;6444;49.742;6.114;2023-10-19T13:27:26;9.98;;;7.28;;
12760;SDS011;6444;49.742;6.114;2023-10-19T13:29:52;6.55;;;5.95;;
12760;SDS011;6444;49.742;6.114;2023-10-19T13:32:19;7.32;;;5.90;;
12760;SDS011;6444;49.742;6.114;2023-10-19T13:34:46;6.03;;;5.28;;
12760;SDS011;6444;49.742;6.114;2023-10-19T13:37:12;6.22;;;5.68;;
12760;SDS011;6444;49.742;6.114;2023-10-19T13:39:39;6.35;;;5.75;;
12760;SDS011;6444;49.742;6.114;2023-10-19T13:42:06;6.05;;;5.50;;
12760;SDS011;6444;49.742;6.114;2023-10-19T13:44:32;6.97;;;5.87;;
12760;SDS011;6444;49.742;6.114;2023-10-19T13:46:59;8.38;;;6.35;;
12760;SDS011;6444;49.742;6.114;2023-10-19T13:49:25;7.03;;;6.32;;
12760;SDS011;6444;49.742;6.114;2023-10-19T13:51:55;8.55;;;6.30;;
12760;SDS011;6444;49.742;6.114;2023-10-19T13:54:19;7.78;;;5.57;;
12760;SDS011;6444;49.742;6.114;2023-10-19T13:56:45;6.05;;;5.05;;
12760;SDS011;6444;49.742;6.114;2023-10-19T13:59:12;6.20;;;5.22;;
12760;SDS011;6444;49.742;6.114;2023-10-19T14:01:39;6.10;;;5.00;;
12760;SDS011;6444;49.742;6.114;2023-10-19T14:04:05;6.10;;;5.37;;
12760;SDS011;6444;49.742;6.114;2023-10-19T14:06:32;5.05;;;4.55;;
12760;SDS011;6444;49.742;6.114;2023-10-19T14:08:58;6.03;;;3.97;;
12760;SDS011;6444;49.742;6.114;2023-10-19T14:11:25;5.18;;;3.20;;
12760;SDS011;6444;49.742;6.114;2023-10-19T14:13:52;6.35;;;3.47;;
12760;SDS011;6444;49.742;6.114;2023-10-19T14:16:19;3.42;;;2.95;;
12760;SDS011;6444;49.742;6.114;2023-10-19T14:18:46;5.30;;;3.72;;
12760;SDS011;6444;49.742;6.114;2023-10-19T14:21:16;6.07;;;3.90;;
12760;SDS011;6444;49.742;6.114;2023-10-19T14:23:42;4.40;;;3.92;;
12760;SDS011;6444;49.742;6.114;2023-10-19T14:26:11;3.87;;;3.47;;
12760;SDS011;6444;49.742;6.114;2023-10-19T14:28:38;4.47;;;3.55;;
12760;SDS011;6444;49.742;6.114;2023-10-19T14:31:04;4.93;;;3.47;;
12760;SDS011;6444;49.742;6.114;2023-10-19T14:33:31;4.78;;;3.70;;
12760;SDS011;6444;49.742;6.114;2023-10-19T14:35:58;4.97;;;3.08;;
12760;SDS011;6444;49.742;6.114;2023-10-19T14:38:24;5.65;;;3.30;;
12760;SDS011;6444;49.742;6.114;2023-10-19T14:40:51;5.55;;;2.90;;
12760;SDS011;6444;49.742;6.114;2023-10-19T14:43:18;3.60;;;3.30;;
12760;SDS011;6444;49.742;6.114;2023-10-19T14:45:44;4.28;;;3.17;;
12760;SDS011;6444;49.742;6.114;2023-10-19T14:48:11;3.28;;;2.90;;
12760;SDS011;6444;49.742;6.114;2023-10-19T14:50:37;4.30;;;2.83;;
12760;SDS011;6444;49.742;6.114;2023-10-19T14:53:04;5.20;;;2.87;;
12760;SDS011;6444;49.742;6.114;2023-10-19T14:55:31;4.45;;;2.80;;
12760;SDS011;6444;49.742;6.114;2023-10-19T14:57:57;5.87;;;3.40;;
12760;SDS011;6444;49.742;6.114;2023-10-19T15:00:24;4.57;;;3.00;;
12760;SDS011;6444;49.742;6.114;2023-10-19T15:03:09;3.50;;;3.20;;